sensor_id;sensor_type;location;lat;lon;timestamp;pressure;altitude;pressure_sealevel;temperature;humidity
13486;BME280;6815;59.336;17.998;2023-04-24T00:01:39;52067.19;;;-145.37;84.50
13486;BME280;6815;59.336;17.998;2023-04-24T00:04:05;52035.25;;;-145.37;84.59
13486;BME280;6815;59.336;17.998;2023-04-24T00:06:32;52049.22;;;-145.37;84.77
13486;BME280;6815;59.336;17.998;2023-04-24T00:09:02;52047.25;;;-145.37;85.48
13486;BME280;6815;59.336;17.998;2023-04-24T00:11:28;52065.19;;;-145.37;85.61
13486;BME280;6815;59.336;17.998;2023-04-24T00:13:53;52039.25;;;-145.37;86.48
13486;BME280;6815;59.336;17.998;2023-04-24T00:16:19;52055.22;;;-145.37;86.44
13486;BME280;6815;59.336;17.998;2023-04-24T00:18:45;52071.19;;;-145.37;84.99
13486;BME280;6815;59.336;17.998;2023-04-24T00:21:11;52045.25;;;-145.37;85.21
13486;BME280;6815;59.336;17.998;2023-04-24T00:23:37;52057.22;;;-145.37;85.77
13486;BME280;6815;59.336;17.998;2023-04-24T00:26:03;52033.25;;;-145.37;84.57
13486;BME280;6815;59.336;17.998;2023-04-24T00:28:28;52059.22;;;-145.37;84.10
13486;BME280;6815;59.336;17.998;2023-04-24T00:30:54;52045.25;;;-145.37;85.15
13486;BME280;6815;59.336;17.998;2023-04-24T00:33:19;52069.19;;;-145.37;85.32
13486;BME280;6815;59.336;17.998;2023-04-24T00:35:45;52033.25;;;-145.37;84.59
13486;BME280;6815;59.336;17.998;2023-04-24T00:38:11;52031.25;;;-145.37;84.95
13486;BME280;6815;59.336;17.998;2023-04-24T00:40:36;52041.25;;;-145.37;84.77
13486;BME280;6815;59.336;17.998;2023-04-24T00:43:01;52059.22;;;-145.37;85.32
13486;BME280;6815;59.336;17.998;2023-04-24T00:45:27;52067.19;;;-145.37;85.52
13486;BME280;6815;59.336;17.998;2023-04-24T00:47:53;52017.28;;;-145.37;85.44
13486;BME280;6815;59.336;17.998;2023-04-24T00:50:20;52059.22;;;-145.37;85.88
13486;BME280;6815;59.336;17.998;2023-04-24T00:52:46;52041.25;;;-145.37;85.68
13486;BME280;6815;59.336;17.998;2023-04-24T00:55:12;52031.25;;;-145.37;86.61
13486;BME280;6815;59.336;17.998;2023-04-24T00:57:38;52065.19;;;-145.37;87.26
13486;BME280;6815;59.336;17.998;2023-04-24T01:00:05;52033.25;;;-145.37;88.02
13486;BME280;6815;59.336;17.998;2023-04-24T01:02:33;52053.22;;;-145.37;87.76
13486;BME280;6815;59.336;17.998;2023-04-24T01:05:00;52073.19;;;-145.37;86.17
13486;BME280;6815;59.336;17.998;2023-04-24T01:07:26;52043.25;;;-145.37;86.67
13486;BME280;6815;59.336;17.998;2023-04-24T01:09:52;52049.22;;;-145.37;86.97
13486;BME280;6815;59.336;17.998;2023-04-24T01:12:19;52083.16;;;-145.37;87.33
13486;BME280;6815;59.336;17.998;2023-04-24T01:14:45;52045.25;;;-145.37;87.24
13486;BME280;6815;59.336;17.998;2023-04-24T01:17:10;52049.22;;;-145.37;86.48
13486;BME280;6815;59.336;17.998;2023-04-24T01:19:37;52047.25;;;-145.37;86.53
13486;BME280;6815;59.336;17.998;2023-04-24T01:22:11;52043.25;;;-145.37;87.08
13486;BME280;6815;59.336;17.998;2023-04-24T01:24:37;52025.28;;;-145.37;85.88
13486;BME280;6815;59.336;17.998;2023-04-24T01:27:03;52053.22;;;-145.37;86.53
13486;BME280;6815;59.336;17.998;2023-04-24T01:29:28;52103.13;;;-145.37;87.71
13486;BME280;6815;59.336;17.998;2023-04-24T01:31:54;52085.16;;;-145.37;86.87
13486;BME280;6815;59.336;17.998;2023-04-24T01:34:20;52041.25;;;-145.37;87.65
13486;BME280;6815;59.336;17.998;2023-04-24T01:36:46;52053.22;;;-145.37;87.80
13486;BME280;6815;59.336;17.998;2023-04-24T01:39:12;52005.31;;;-145.37;87.03
13486;BME280;6815;59.336;17.998;2023-04-24T01:41:37;52035.25;;;-145.37;86.59
13486;BME280;6815;59.336;17.998;2023-04-24T01:44:03;52051.22;;;-145.37;87.90
13486;BME280;6815;59.336;17.998;2023-04-24T01:46:29;52047.25;;;-145.37;86.56
13486;BME280;6815;59.336;17.998;2023-04-24T01:48:55;52065.19;;;-145.37;87.31
13486;BME280;6815;59.336;17.998;2023-04-24T01:51:21;52053.22;;;-145.37;87.85
13486;BME280;6815;59.336;17.998;2023-04-24T01:53:46;52037.25;;;-145.37;86.72
13486;BME280;6815;59.336;17.998;2023-04-24T01:56:12;52047.25;;;-145.37;87.35
13486;BME280;6815;59.336;17.998;2023-04-24T01:58:39;51999.34;;;-145.37;86.93
13486;BME280;6815;59.336;17.998;2023-04-24T02:01:06;52013.31;;;-145.37;88.70
13486;BME280;6815;59.336;17.998;2023-04-24T02:03:31;52017.28;;;-145.37;87.40
13486;BME280;6815;59.336;17.998;2023-04-24T02:05:57;52067.19;;;-145.37;87.28
13486;BME280;6815;59.336;17.998;2023-04-24T02:08:22;52033.25;;;-145.37;87.91
13486;BME280;6815;59.336;17.998;2023-04-24T02:10:48;52057.22;;;-145.37;87.12
13486;BME280;6815;59.336;17.998;2023-04-24T02:13:13;52057.22;;;-145.37;87.88
13486;BME280;6815;59.336;17.998;2023-04-24T02:15:39;52055.22;;;-145.37;87.50
13486;BME280;6815;59.336;17.998;2023-04-24T02:18:04;52045.25;;;-145.37;87.65
13486;BME280;6815;59.336;17.998;2023-04-24T02:20:29;52031.25;;;-145.37;86.89
13486;BME280;6815;59.336;17.998;2023-04-24T02:22:55;52029.28;;;-145.37;86.22
13486;BME280;6815;59.336;17.998;2023-04-24T02:25:21;52051.22;;;-145.37;87.09
13486;BME280;6815;59.336;17.998;2023-04-24T02:27:47;52055.22;;;-145.37;86.36
13486;BME280;6815;59.336;17.998;2023-04-24T02:30:12;52021.28;;;-145.37;87.09
13486;BME280;6815;59.336;17.998;2023-04-24T02:32:39;52025.28;;;-145.37;86.69
13486;BME280;6815;59.336;17.998;2023-04-24T02:35:06;52047.25;;;-145.37;86.38
13486;BME280;6815;59.336;17.998;2023-04-24T02:37:31;52049.22;;;-145.37;86.62
13486;BME280;6815;59.336;17.998;2023-04-24T02:39:57;52031.25;;;-145.37;88.63
13486;BME280;6815;59.336;17.998;2023-04-24T02:42:22;52057.22;;;-145.37;88.26
13486;BME280;6815;59.336;17.998;2023-04-24T02:44:48;52053.22;;;-145.37;88.83
13486;BME280;6815;59.336;17.998;2023-04-24T02:47:13;52047.25;;;-145.37;88.38
13486;BME280;6815;59.336;17.998;2023-04-24T02:49:38;52043.25;;;-145.37;88.13
13486;BME280;6815;59.336;17.998;2023-04-24T02:52:04;52041.25;;;-145.37;88.93
13486;BME280;6815;59.336;17.998;2023-04-24T02:54:29;52037.25;;;-145.37;88.77
13486;BME280;6815;59.336;17.998;2023-04-24T02:56:55;52023.28;;;-145.37;88.67
13486;BME280;6815;59.336;17.998;2023-04-24T02:59:21;52039.25;;;-145.37;87.90
13486;BME280;6815;59.336;17.998;2023-04-24T03:01:50;52055.22;;;-145.37;87.75
13486;BME280;6815;59.336;17.998;2023-04-24T03:04:15;52069.19;;;-145.37;88.90
13486;BME280;6815;59.336;17.998;2023-04-24T03:06:41;52025.28;;;-145.37;88.19
13486;BME280;6815;59.336;17.998;2023-04-24T03:09:06;52047.25;;;-145.37;87.93
13486;BME280;6815;59.336;17.998;2023-04-24T03:11:32;52021.28;;;-145.37;89.02
13486;BME280;6815;59.336;17.998;2023-04-24T03:13:57;52039.25;;;-145.37;88.21
13486;BME280;6815;59.336;17.998;2023-04-24T03:16:23;52053.22;;;-145.37;88.65
13486;BME280;6815;59.336;17.998;2023-04-24T03:18:48;52041.25;;;-145.37;88.52
13486;BME280;6815;59.336;17.998;2023-04-24T03:21:14;52041.25;;;-145.37;88.89
13486;BME280;6815;59.336;17.998;2023-04-24T03:23:39;52041.25;;;-145.37;88.26
13486;BME280;6815;59.336;17.998;2023-04-24T03:26:05;52047.25;;;-145.37;86.73
13486;BME280;6815;59.336;17.998;2023-04-24T03:28:30;52023.28;;;-145.37;87.25
13486;BME280;6815;59.336;17.998;2023-04-24T03:30:56;52061.22;;;-145.37;87.26
13486;BME280;6815;59.336;17.998;2023-04-24T03:33:21;52037.25;;;-145.37;86.38
13486;BME280;6815;59.336;17.998;2023-04-24T03:35:46;52073.19;;;-145.37;86.64
13486;BME280;6815;59.336;17.998;2023-04-24T03:38:12;52015.28;;;-145.37;86.39
13486;BME280;6815;59.336;17.998;2023-04-24T03:40:37;52025.28;;;-145.37;86.27
13486;BME280;6815;59.336;17.998;2023-04-24T03:43:03;52051.22;;;-145.37;86.08
13486;BME280;6815;59.336;17.998;2023-04-24T03:45:28;52077.19;;;-145.37;86.34
13486;BME280;6815;59.336;17.998;2023-04-24T03:47:53;52085.16;;;-145.37;86.92
13486;BME280;6815;59.336;17.998;2023-04-24T03:50:19;52033.25;;;-145.37;86.35
13486;BME280;6815;59.336;17.998;2023-04-24T03:52:45;52021.28;;;-145.37;85.89
13486;BME280;6815;59.336;17.998;2023-04-24T03:55:10;52069.19;;;-145.37;85.38
13486;BME280;6815;59.336;17.998;2023-04-24T03:57:38;52053.22;;;-145.37;86.90
13486;BME280;6815;59.336;17.998;2023-04-24T04:00:04;52071.19;;;-145.37;87.46
13486;BME280;6815;59.336;17.998;2023-04-24T04:02:30;52045.25;;;-145.37;87.88
13486;BME280;6815;59.336;17.998;2023-04-24T04:04:56;52071.19;;;-145.37;87.84
13486;BME280;6815;59.336;17.998;2023-04-24T04:07:21;52057.22;;;-145.37;87.77
13486;BME280;6815;59.336;17.998;2023-04-24T04:09:47;52037.25;;;-145.37;87.95
13486;BME280;6815;59.336;17.998;2023-04-24T04:12:12;52059.22;;;-145.37;87.58
13486;BME280;6815;59.336;17.998;2023-04-24T04:14:37;52043.25;;;-145.37;87.39
13486;BME280;6815;59.336;17.998;2023-04-24T04:17:03;52039.25;;;-145.37;88.20
13486;BME280;6815;59.336;17.998;2023-04-24T04:19:28;52091.16;;;-145.37;88.37
13486;BME280;6815;59.336;17.998;2023-04-24T04:21:54;52059.22;;;-145.37;87.76
13486;BME280;6815;59.336;17.998;2023-04-24T04:24:21;52025.28;;;-145.37;86.78
13486;BME280;6815;59.336;17.998;2023-04-24T04:26:48;52053.22;;;-145.37;87.66
13486;BME280;6815;59.336;17.998;2023-04-24T04:29:17;52053.22;;;-145.37;87.76
13486;BME280;6815;59.336;17.998;2023-04-24T04:31:44;52095.16;;;-145.37;87.17
13486;BME280;6815;59.336;17.998;2023-04-24T04:34:09;52021.28;;;-145.37;87.19
13486;BME280;6815;59.336;17.998;2023-04-24T04:36:35;52041.25;;;-145.37;86.98
13486;BME280;6815;59.336;17.998;2023-04-24T04:39:02;52057.22;;;-145.37;87.34
13486;BME280;6815;59.336;17.998;2023-04-24T04:41:29;52019.28;;;-145.37;86.63
13486;BME280;6815;59.336;17.998;2023-04-24T04:43:55;52067.19;;;-145.37;86.85
13486;BME280;6815;59.336;17.998;2023-04-24T04:46:23;52059.22;;;-145.37;88.28
13486;BME280;6815;59.336;17.998;2023-04-24T04:48:51;52059.22;;;-145.37;87.90
13486;BME280;6815;59.336;17.998;2023-04-24T04:51:17;52079.19;;;-145.37;87.82
13486;BME280;6815;59.336;17.998;2023-04-24T04:53:42;52051.22;;;-145.37;87.08
13486;BME280;6815;59.336;17.998;2023-04-24T04:56:08;52045.25;;;-145.37;87.23
13486;BME280;6815;59.336;17.998;2023-04-24T04:58:33;52051.22;;;-145.37;87.41
13486;BME280;6815;59.336;17.998;2023-04-24T05:00:58;52053.22;;;-145.37;88.69
13486;BME280;6815;59.336;17.998;2023-04-24T05:03:24;52039.25;;;-145.37;87.57
13486;BME280;6815;59.336;17.998;2023-04-24T05:05:50;52027.28;;;-145.37;87.71
13486;BME280;6815;59.336;17.998;2023-04-24T05:08:15;52067.19;;;-145.37;88.42
13486;BME280;6815;59.336;17.998;2023-04-24T05:10:41;52003.31;;;-145.37;88.54
13486;BME280;6815;59.336;17.998;2023-04-24T05:13:06;52027.28;;;-145.37;87.40
13486;BME280;6815;59.336;17.998;2023-04-24T05:15:31;52055.22;;;-145.37;88.32
13486;BME280;6815;59.336;17.998;2023-04-24T05:17:57;51991.34;;;-145.37;88.89
13486;BME280;6815;59.336;17.998;2023-04-24T05:20:22;52059.22;;;-145.37;88.76
13486;BME280;6815;59.336;17.998;2023-04-24T05:22:48;52025.28;;;-145.37;89.22
13486;BME280;6815;59.336;17.998;2023-04-24T05:25:13;52041.25;;;-145.37;89.58
13486;BME280;6815;59.336;17.998;2023-04-24T05:27:39;52059.22;;;-145.37;88.99
13486;BME280;6815;59.336;17.998;2023-04-24T05:30:06;52045.25;;;-145.37;90.04
13486;BME280;6815;59.336;17.998;2023-04-24T05:32:32;52023.28;;;-145.37;89.32
13486;BME280;6815;59.336;17.998;2023-04-24T05:34:58;52053.22;;;-145.37;90.04
13486;BME280;6815;59.336;17.998;2023-04-24T05:37:23;52077.19;;;-145.37;89.86
13486;BME280;6815;59.336;17.998;2023-04-24T05:39:49;52037.25;;;-145.37;90.05
13486;BME280;6815;59.336;17.998;2023-04-24T05:42:15;52025.28;;;-145.37;90.09
13486;BME280;6815;59.336;17.998;2023-04-24T05:44:40;52033.25;;;-145.37;90.14
13486;BME280;6815;59.336;17.998;2023-04-24T05:47:06;52037.25;;;-145.37;89.98
13486;BME280;6815;59.336;17.998;2023-04-24T05:49:31;52089.16;;;-145.37;90.32
13486;BME280;6815;59.336;17.998;2023-04-24T05:51:57;52013.31;;;-145.37;90.18
13486;BME280;6815;59.336;17.998;2023-04-24T05:54:22;52041.25;;;-145.37;90.44
13486;BME280;6815;59.336;17.998;2023-04-24T05:56:49;52055.22;;;-145.37;90.15
13486;BME280;6815;59.336;17.998;2023-04-24T05:59:15;52055.22;;;-145.37;89.34
13486;BME280;6815;59.336;17.998;2023-04-24T06:01:41;52043.25;;;-145.37;90.48
13486;BME280;6815;59.336;17.998;2023-04-24T06:04:07;52041.25;;;-145.37;90.56
13486;BME280;6815;59.336;17.998;2023-04-24T06:06:32;52051.22;;;-145.37;90.38
13486;BME280;6815;59.336;17.998;2023-04-24T06:08:58;52035.25;;;-145.37;90.33
13486;BME280;6815;59.336;17.998;2023-04-24T06:11:24;52073.19;;;-145.37;89.23
13486;BME280;6815;59.336;17.998;2023-04-24T06:13:50;52043.25;;;-145.37;88.77
13486;BME280;6815;59.336;17.998;2023-04-24T06:16:15;52033.25;;;-145.37;90.48
13486;BME280;6815;59.336;17.998;2023-04-24T06:18:41;52047.25;;;-145.37;89.36
13486;BME280;6815;59.336;17.998;2023-04-24T06:21:06;52051.22;;;-145.37;89.79
13486;BME280;6815;59.336;17.998;2023-04-24T06:23:32;52075.19;;;-145.37;89.05
13486;BME280;6815;59.336;17.998;2023-04-24T06:25:58;52037.25;;;-145.37;89.01
13486;BME280;6815;59.336;17.998;2023-04-24T06:28:24;52061.22;;;-145.37;88.50
13486;BME280;6815;59.336;17.998;2023-04-24T06:30:50;52069.19;;;-145.37;88.96
13486;BME280;6815;59.336;17.998;2023-04-24T06:33:16;52051.22;;;-145.37;89.51
13486;BME280;6815;59.336;17.998;2023-04-24T06:35:41;52045.25;;;-145.37;89.00
13486;BME280;6815;59.336;17.998;2023-04-24T06:38:07;52055.22;;;-145.37;89.14
13486;BME280;6815;59.336;17.998;2023-04-24T06:40:32;52071.19;;;-145.37;89.00
13486;BME280;6815;59.336;17.998;2023-04-24T06:42:59;52089.16;;;-145.37;88.35
13486;BME280;6815;59.336;17.998;2023-04-24T06:45:28;52053.22;;;-145.37;88.49
13486;BME280;6815;59.336;17.998;2023-04-24T06:47:55;52065.19;;;-145.37;88.42
13486;BME280;6815;59.336;17.998;2023-04-24T06:50:20;52057.22;;;-145.37;88.44
13486;BME280;6815;59.336;17.998;2023-04-24T06:52:49;52011.31;;;-145.37;88.08
13486;BME280;6815;59.336;17.998;2023-04-24T06:55:15;52083.16;;;-145.37;87.86
13486;BME280;6815;59.336;17.998;2023-04-24T06:57:42;52075.19;;;-145.37;87.85
13486;BME280;6815;59.336;17.998;2023-04-24T07:00:08;52053.22;;;-145.37;87.52
13486;BME280;6815;59.336;17.998;2023-04-24T07:02:34;52013.31;;;-145.37;88.14
13486;BME280;6815;59.336;17.998;2023-04-24T07:05:00;52057.22;;;-145.37;87.73
13486;BME280;6815;59.336;17.998;2023-04-24T07:07:26;52061.22;;;-145.37;88.41
13486;BME280;6815;59.336;17.998;2023-04-24T07:09:52;51989.34;;;-145.37;88.21
13486;BME280;6815;59.336;17.998;2023-04-24T07:12:19;52065.19;;;-145.37;88.21
13486;BME280;6815;59.336;17.998;2023-04-24T07:14:46;52055.22;;;-145.37;87.50
13486;BME280;6815;59.336;17.998;2023-04-24T07:17:12;52077.19;;;-145.37;86.85
13486;BME280;6815;59.336;17.998;2023-04-24T07:19:38;52065.19;;;-145.37;87.19
13486;BME280;6815;59.336;17.998;2023-04-24T07:22:03;52061.22;;;-145.37;87.42
13486;BME280;6815;59.336;17.998;2023-04-24T07:24:30;52091.16;;;-145.37;87.31
13486;BME280;6815;59.336;17.998;2023-04-24T07:26:57;52019.28;;;-145.37;87.99
13486;BME280;6815;59.336;17.998;2023-04-24T07:29:23;52065.19;;;-145.37;87.69
13486;BME280;6815;59.336;17.998;2023-04-24T07:31:48;52087.16;;;-145.37;88.28
13486;BME280;6815;59.336;17.998;2023-04-24T07:34:13;52061.22;;;-145.37;88.53
13486;BME280;6815;59.336;17.998;2023-04-24T07:36:40;52057.22;;;-145.37;88.56
13486;BME280;6815;59.336;17.998;2023-04-24T07:39:07;52045.25;;;-145.37;88.32
13486;BME280;6815;59.336;17.998;2023-04-24T07:41:33;52049.22;;;-145.37;87.60
13486;BME280;6815;59.336;17.998;2023-04-24T07:43:59;52025.28;;;-145.37;87.71
13486;BME280;6815;59.336;17.998;2023-04-24T07:46:24;52013.31;;;-145.37;86.86
13486;BME280;6815;59.336;17.998;2023-04-24T07:48:50;52053.22;;;-145.37;86.82
13486;BME280;6815;59.336;17.998;2023-04-24T07:51:16;52017.28;;;-145.37;87.78
13486;BME280;6815;59.336;17.998;2023-04-24T07:53:42;52023.28;;;-145.37;87.33
13486;BME280;6815;59.336;17.998;2023-04-24T07:56:07;52045.25;;;-145.37;86.69
13486;BME280;6815;59.336;17.998;2023-04-24T07:58:33;52079.19;;;-145.37;87.37
13486;BME280;6815;59.336;17.998;2023-04-24T08:00:59;52085.16;;;-145.37;86.70
13486;BME280;6815;59.336;17.998;2023-04-24T08:03:25;52093.16;;;-145.37;86.12
13486;BME280;6815;59.336;17.998;2023-04-24T08:05:50;52049.22;;;-145.37;87.03
13486;BME280;6815;59.336;17.998;2023-04-24T08:08:16;52009.31;;;-145.37;86.92
13486;BME280;6815;59.336;17.998;2023-04-24T08:10:43;52069.19;;;-145.37;87.01
13486;BME280;6815;59.336;17.998;2023-04-24T08:13:08;52073.19;;;-145.37;87.45
13486;BME280;6815;59.336;17.998;2023-04-24T08:15:34;52085.16;;;-145.37;86.96
13486;BME280;6815;59.336;17.998;2023-04-24T08:17:59;52061.22;;;-145.37;85.72
13486;BME280;6815;59.336;17.998;2023-04-24T08:20:25;52081.16;;;-145.37;86.30
13486;BME280;6815;59.336;17.998;2023-04-24T08:22:50;52059.22;;;-145.37;86.39
13486;BME280;6815;59.336;17.998;2023-04-24T08:25:16;52063.22;;;-145.37;86.56
13486;BME280;6815;59.336;17.998;2023-04-24T08:27:43;52051.22;;;-145.37;86.50
13486;BME280;6815;59.336;17.998;2023-04-24T08:30:09;52083.16;;;-145.37;86.39
13486;BME280;6815;59.336;17.998;2023-04-24T08:32:34;52045.25;;;-145.37;86.70
13486;BME280;6815;59.336;17.998;2023-04-24T08:35:00;52071.19;;;-145.37;86.86
13486;BME280;6815;59.336;17.998;2023-04-24T08:37:26;52065.19;;;-145.37;87.67
13486;BME280;6815;59.336;17.998;2023-04-24T08:39:53;52079.19;;;-145.37;85.48
13486;BME280;6815;59.336;17.998;2023-04-24T08:42:20;52065.19;;;-145.37;85.56
13486;BME280;6815;59.336;17.998;2023-04-24T08:44:46;52035.25;;;-145.37;85.56
13486;BME280;6815;59.336;17.998;2023-04-24T08:47:12;52093.16;;;-145.37;86.43
13486;BME280;6815;59.336;17.998;2023-04-24T08:49:38;52025.28;;;-145.37;85.94
13486;BME280;6815;59.336;17.998;2023-04-24T08:52:07;52069.19;;;-145.37;85.20
13486;BME280;6815;59.336;17.998;2023-04-24T08:54:36;52073.19;;;-145.37;84.93
13486;BME280;6815;59.336;17.998;2023-04-24T08:57:04;52069.19;;;-145.37;84.40
13486;BME280;6815;59.336;17.998;2023-04-24T08:59:30;52029.28;;;-145.37;83.60
13486;BME280;6815;59.336;17.998;2023-04-24T09:01:56;52107.13;;;-145.37;84.12
13486;BME280;6815;59.336;17.998;2023-04-24T09:04:23;52083.16;;;-145.37;85.16
13486;BME280;6815;59.336;17.998;2023-04-24T09:06:51;52085.16;;;-145.37;84.98
13486;BME280;6815;59.336;17.998;2023-04-24T09:09:17;52087.16;;;-145.37;85.43
13486;BME280;6815;59.336;17.998;2023-04-24T09:11:44;52075.19;;;-145.37;85.05
13486;BME280;6815;59.336;17.998;2023-04-24T09:14:10;52057.22;;;-145.37;84.96
13486;BME280;6815;59.336;17.998;2023-04-24T09:16:36;52085.16;;;-145.37;85.68
13486;BME280;6815;59.336;17.998;2023-04-24T09:19:03;52081.16;;;-145.37;85.87
13486;BME280;6815;59.336;17.998;2023-04-24T09:21:32;52069.19;;;-145.37;86.46
13486;BME280;6815;59.336;17.998;2023-04-24T09:24:00;52057.22;;;-145.37;85.94
13486;BME280;6815;59.336;17.998;2023-04-24T09:26:29;52051.22;;;-145.37;85.96
13486;BME280;6815;59.336;17.998;2023-04-24T09:28:58;52075.19;;;-145.37;86.20
13486;BME280;6815;59.336;17.998;2023-04-24T09:31:27;52067.19;;;-145.37;86.08
13486;BME280;6815;59.336;17.998;2023-04-24T09:33:58;52055.22;;;-145.37;86.36
13486;BME280;6815;59.336;17.998;2023-04-24T09:36:32;52083.16;;;-145.37;86.54
13486;BME280;6815;59.336;17.998;2023-04-24T09:39:04;52081.16;;;-145.37;85.69
13486;BME280;6815;59.336;17.998;2023-04-24T09:41:31;52049.22;;;-145.37;85.71
13486;BME280;6815;59.336;17.998;2023-04-24T09:44:23;52077.19;;;-145.37;86.30
13486;BME280;6815;59.336;17.998;2023-04-24T09:46:54;52089.16;;;-145.37;85.71
13486;BME280;6815;59.336;17.998;2023-04-24T09:49:23;52045.25;;;-145.37;84.71
13486;BME280;6815;59.336;17.998;2023-04-24T09:51:49;52037.25;;;-145.37;85.64
13486;BME280;6815;59.336;17.998;2023-04-24T09:54:20;52055.22;;;-145.37;86.19
13486;BME280;6815;59.336;17.998;2023-04-24T09:56:50;52093.16;;;-145.37;86.27
13486;BME280;6815;59.336;17.998;2023-04-24T09:59:18;52079.19;;;-145.37;86.10
13486;BME280;6815;59.336;17.998;2023-04-24T10:01:44;52057.22;;;-145.37;85.68
13486;BME280;6815;59.336;17.998;2023-04-24T10:06:42;52065.19;;;-145.37;85.05
13486;BME280;6815;59.336;17.998;2023-04-24T10:09:08;52035.25;;;-145.37;84.58
13486;BME280;6815;59.336;17.998;2023-04-24T10:11:37;52111.13;;;-145.37;86.38
13486;BME280;6815;59.336;17.998;2023-04-24T10:14:03;52055.22;;;-145.37;85.13
13486;BME280;6815;59.336;17.998;2023-04-24T10:16:29;52119.09;;;-145.37;85.13
13486;BME280;6815;59.336;17.998;2023-04-24T10:18:59;52097.13;;;-145.37;83.86
13486;BME280;6815;59.336;17.998;2023-04-24T10:21:26;52045.25;;;-145.37;83.67
13486;BME280;6815;59.336;17.998;2023-04-24T10:23:53;52097.13;;;-145.37;82.30
13486;BME280;6815;59.336;17.998;2023-04-24T10:26:20;52061.22;;;-145.37;81.72
13486;BME280;6815;59.336;17.998;2023-04-24T10:28:47;52067.19;;;-145.37;82.97
13486;BME280;6815;59.336;17.998;2023-04-24T10:31:13;52075.19;;;-145.37;83.20
13486;BME280;6815;59.336;17.998;2023-04-24T10:33:41;52069.19;;;-145.37;82.96
13486;BME280;6815;59.336;17.998;2023-04-24T10:36:11;52071.19;;;-145.37;82.61
13486;BME280;6815;59.336;17.998;2023-04-24T10:38:39;52053.22;;;-145.37;82.53
13486;BME280;6815;59.336;17.998;2023-04-24T10:41:08;52125.09;;;-145.37;82.55
13486;BME280;6815;59.336;17.998;2023-04-24T10:43:42;52063.22;;;-145.37;83.95
13486;BME280;6815;59.336;17.998;2023-04-24T10:46:08;52051.22;;;-145.37;84.54
13486;BME280;6815;59.336;17.998;2023-04-24T10:48:35;52035.25;;;-145.37;83.70
13486;BME280;6815;59.336;17.998;2023-04-24T10:51:02;52083.16;;;-145.37;83.00
13486;BME280;6815;59.336;17.998;2023-04-24T10:53:29;52073.19;;;-145.37;83.60
13486;BME280;6815;59.336;17.998;2023-04-24T10:56:05;52087.16;;;-145.37;83.92
13486;BME280;6815;59.336;17.998;2023-04-24T11:01:05;52069.19;;;-145.37;83.75
13486;BME280;6815;59.336;17.998;2023-04-24T11:03:32;52095.16;;;-145.37;83.83
13486;BME280;6815;59.336;17.998;2023-04-24T11:11:16;52075.19;;;-145.37;83.19
13486;BME280;6815;59.336;17.998;2023-04-24T11:16:31;52035.25;;;-145.37;84.72
13486;BME280;6815;59.336;17.998;2023-04-24T11:21:46;52037.25;;;-145.37;85.17
13486;BME280;6815;59.336;17.998;2023-04-24T11:32:42;52111.13;;;-145.37;84.77
13486;BME280;6815;59.336;17.998;2023-04-24T11:35:17;52083.16;;;-145.37;85.40
13486;BME280;6815;59.336;17.998;2023-04-24T11:37:47;52091.16;;;-145.37;84.70
13486;BME280;6815;59.336;17.998;2023-04-24T11:40:17;52119.09;;;-145.37;84.68
13486;BME280;6815;59.336;17.998;2023-04-24T11:42:45;52069.19;;;-145.37;84.92
13486;BME280;6815;59.336;17.998;2023-04-24T11:45:20;52017.28;;;-145.37;85.12
13486;BME280;6815;59.336;17.998;2023-04-24T11:47:46;52099.13;;;-145.37;84.91
13486;BME280;6815;59.336;17.998;2023-04-24T11:50:14;52077.19;;;-145.37;82.55
13486;BME280;6815;59.336;17.998;2023-04-24T11:52:41;52091.16;;;-145.37;82.58
13486;BME280;6815;59.336;17.998;2023-04-24T11:57:59;52073.19;;;-145.37;83.61
13486;BME280;6815;59.336;17.998;2023-04-24T12:00:28;52049.22;;;-145.37;84.46
13486;BME280;6815;59.336;17.998;2023-04-24T12:03:23;52075.19;;;-145.37;83.66
13486;BME280;6815;59.336;17.998;2023-04-24T12:05:48;52067.19;;;-145.37;82.63
13486;BME280;6815;59.336;17.998;2023-04-24T12:08:27;52107.13;;;-145.37;84.06
13486;BME280;6815;59.336;17.998;2023-04-24T12:10:53;52067.19;;;-145.37;83.72
13486;BME280;6815;59.336;17.998;2023-04-24T12:13:18;52057.22;;;-145.37;83.88
13486;BME280;6815;59.336;17.998;2023-04-24T12:15:44;52089.16;;;-145.37;84.26
13486;BME280;6815;59.336;17.998;2023-04-24T12:18:12;52109.13;;;-145.37;83.54
13486;BME280;6815;59.336;17.998;2023-04-24T12:20:40;52109.13;;;-145.37;84.25
13486;BME280;6815;59.336;17.998;2023-04-24T12:23:06;52067.19;;;-145.37;84.70
13486;BME280;6815;59.336;17.998;2023-04-24T12:25:32;52067.19;;;-145.37;83.52
13486;BME280;6815;59.336;17.998;2023-04-24T12:30:31;52087.16;;;-145.37;82.92
13486;BME280;6815;59.336;17.998;2023-04-24T12:32:58;52081.16;;;-145.37;83.14
13486;BME280;6815;59.336;17.998;2023-04-24T12:35:25;52069.19;;;-145.37;83.74
13486;BME280;6815;59.336;17.998;2023-04-24T12:37:52;52063.22;;;-145.37;82.73
13486;BME280;6815;59.336;17.998;2023-04-24T12:40:20;52091.16;;;-145.37;81.71
13486;BME280;6815;59.336;17.998;2023-04-24T12:45:32;52071.19;;;-145.37;82.78
13486;BME280;6815;59.336;17.998;2023-04-24T12:47:57;52099.13;;;-145.37;82.58
13486;BME280;6815;59.336;17.998;2023-04-24T12:50:23;52089.16;;;-145.37;83.41
13486;BME280;6815;59.336;17.998;2023-04-24T12:52:52;52109.13;;;-145.37;82.64
13486;BME280;6815;59.336;17.998;2023-04-24T12:55:17;52079.19;;;-145.37;81.69
13486;BME280;6815;59.336;17.998;2023-04-24T12:57:43;52061.22;;;-145.37;81.88
13486;BME280;6815;59.336;17.998;2023-04-24T13:00:09;52085.16;;;-145.37;81.69
13486;BME280;6815;59.336;17.998;2023-04-24T13:02:35;52087.16;;;-145.37;82.49
13486;BME280;6815;59.336;17.998;2023-04-24T13:05:01;52077.19;;;-145.37;83.76
13486;BME280;6815;59.336;17.998;2023-04-24T13:07:27;52071.19;;;-145.37;82.99
13486;BME280;6815;59.336;17.998;2023-04-24T13:09:54;52063.22;;;-145.37;82.55